createdAt,value
2018-06-30T00:02:11.468Z,86.90
2018-06-30T00:04:45.317Z,87.70
2018-06-30T00:07:13.828Z,87.30
2018-06-30T00:12:10.500Z,86.70
2018-06-30T00:14:39.013Z,86.80
2018-06-30T00:17:07.558Z,86.60
2018-06-30T00:19:36.070Z,86.70
2018-06-30T00:22:04.631Z,86.80
2018-06-30T00:24:33.157Z,86.30
2018-06-30T00:27:07.049Z,86.20
2018-06-30T00:32:03.799Z,86.70
2018-06-30T00:39:28.652Z,88.20
2018-06-30T00:41:57.166Z,87.80
2018-06-30T00:44:25.643Z,87.30
2018-06-30T00:46:54.159Z,87.40
2018-06-30T00:49:22.925Z,88.30
2018-06-30T00:51:51.392Z,88.30
2018-06-30T00:54:19.927Z,88.10
2018-06-30T00:56:48.469Z,88.30
2018-06-30T00:59:17.001Z,88.70
2018-06-30T01:01:45.511Z,88.30
2018-06-30T01:04:14.012Z,87.80
2018-06-30T01:11:38.845Z,88.70
2018-06-30T01:14:07.384Z,88.90
2018-06-30T01:16:35.899Z,89.10
2018-06-30T01:19:04.398Z,89.10
2018-06-30T01:21:32.878Z,89.40
2018-06-30T01:24:01.406Z,89.60
2018-06-30T01:26:29.903Z,90.00
2018-06-30T01:28:58.407Z,90.00
2018-06-30T01:31:26.899Z,89.70
2018-06-30T01:33:55.379Z,89.40
2018-06-30T01:36:23.867Z,89.30
2018-06-30T01:38:52.367Z,89.80
2018-06-30T01:41:20.895Z,89.40
2018-06-30T01:43:49.386Z,89.90
2018-06-30T01:46:17.891Z,89.60
2018-06-30T01:48:46.381Z,89.80
2018-06-30T01:51:14.940Z,90.10
2018-06-30T01:53:43.459Z,90.20
2018-06-30T01:56:11.991Z,90.10
2018-06-30T01:58:40.537Z,90.40
2018-06-30T02:01:09.034Z,90.60
2018-06-30T02:03:37.549Z,90.50
2018-06-30T02:06:06.420Z,90.30
2018-06-30T02:08:34.924Z,90.50
2018-06-30T02:11:03.437Z,90.60
2018-06-30T02:16:00.120Z,90.80
2018-06-30T02:18:28.630Z,90.70
2018-06-30T02:20:57.159Z,90.70
2018-06-30T02:23:25.664Z,90.60
2018-06-30T02:25:54.170Z,90.90
2018-06-30T02:28:22.645Z,90.90
2018-06-30T02:30:51.133Z,90.90
2018-06-30T02:33:19.652Z,90.60
2018-06-30T02:35:48.138Z,90.90
2018-06-30T02:38:16.625Z,90.60
2018-06-30T02:40:45.170Z,90.50
2018-06-30T02:43:13.727Z,90.40
2018-06-30T02:45:42.229Z,90.40
2018-06-30T02:50:38.904Z,90.10
2018-06-30T02:53:07.405Z,90.20
2018-06-30T02:55:35.943Z,90.30
2018-06-30T02:58:04.529Z,90.80
2018-06-30T03:00:33.051Z,90.90
2018-06-30T03:03:01.539Z,90.70
2018-06-30T03:05:30.097Z,90.60
2018-06-30T03:07:58.613Z,90.60
2018-06-30T03:10:27.093Z,90.60
2018-06-30T03:17:51.947Z,90.60
2018-06-30T03:20:20.443Z,90.90
2018-06-30T03:22:48.935Z,90.90
2018-06-30T03:25:17.459Z,91.10
2018-06-30T03:27:45.965Z,91.00
2018-06-30T03:32:43.497Z,90.80
2018-06-30T03:35:12.023Z,90.70
2018-06-30T03:37:40.531Z,90.80
2018-06-30T03:42:37.286Z,91.30
2018-06-30T03:47:33.938Z,91.30
2018-06-30T03:50:02.463Z,91.10
2018-06-30T03:52:30.970Z,91.30
2018-06-30T03:54:59.503Z,91.40
2018-06-30T03:57:28.062Z,91.30
2018-06-30T03:59:56.580Z,91.90
2018-06-30T04:02:25.084Z,91.30
2018-06-30T04:04:53.574Z,91.20
2018-06-30T04:07:22.152Z,91.00
2018-06-30T04:09:50.640Z,90.80
2018-06-30T04:14:47.310Z,91.30
2018-06-30T04:22:12.189Z,91.90
2018-06-30T04:24:40.610Z,92.20
2018-06-30T04:27:09.106Z,92.30
2018-06-30T04:29:37.612Z,92.40
2018-06-30T04:32:06.172Z,92.00
2018-06-30T04:34:34.716Z,92.10
2018-06-30T04:37:03.262Z,91.90
2018-06-30T04:39:31.744Z,91.40
2018-06-30T04:44:28.418Z,90.70
2018-06-30T04:46:56.926Z,90.80
2018-06-30T04:49:25.439Z,90.80
2018-06-30T04:51:53.943Z,91.10
2018-06-30T04:54:22.439Z,91.10
2018-06-30T04:56:50.965Z,91.20
2018-06-30T04:59:19.467Z,91.30
2018-06-30T05:01:47.951Z,91.20
2018-06-30T05:04:16.455Z,91.60
2018-06-30T05:06:44.964Z,91.20
2018-06-30T05:09:13.449Z,91.30
2018-06-30T05:11:41.955Z,91.60
2018-06-30T05:16:38.695Z,91.80
2018-06-30T05:19:07.201Z,91.50
2018-06-30T05:24:03.910Z,91.50
2018-06-30T05:26:32.453Z,91.40
2018-06-30T05:29:00.984Z,91.10
2018-06-30T05:31:29.512Z,91.20
2018-06-30T05:33:58.028Z,91.20
2018-06-30T05:36:26.587Z,91.30
2018-06-30T05:38:55.139Z,91.20
2018-06-30T05:41:23.633Z,91.50
2018-06-30T05:43:52.212Z,91.60
2018-06-30T05:46:20.776Z,92.20
2018-06-30T05:48:49.326Z,92.60
2018-06-30T05:51:17.865Z,92.60
2018-06-30T05:53:46.380Z,91.20
2018-06-30T05:56:14.902Z,90.20
2018-06-30T06:01:11.675Z,85.70
2018-06-30T06:06:08.401Z,86.50
2018-06-30T06:08:36.898Z,84.40
2018-06-30T06:11:05.455Z,83.20
2018-06-30T06:13:33.964Z,82.60
2018-06-30T06:16:02.460Z,82.00
2018-06-30T06:18:30.965Z,76.60
2018-06-30T06:23:27.654Z,77.30
2018-06-30T06:25:56.214Z,78.10
2018-06-30T06:28:24.686Z,76.90
2018-06-30T06:30:53.223Z,76.00
2018-06-30T06:33:21.764Z,74.40
2018-06-30T06:35:50.239Z,74.90
2018-06-30T06:38:18.727Z,72.60
2018-06-30T06:40:47.283Z,73.90
2018-06-30T06:43:15.812Z,71.90
2018-06-30T06:45:44.305Z,71.00
2018-06-30T06:50:41.018Z,74.10
2018-06-30T06:53:09.515Z,72.40
2018-06-30T06:55:38.064Z,72.50
2018-06-30T06:58:06.643Z,73.70
2018-06-30T07:00:35.201Z,72.80
2018-06-30T07:03:03.767Z,67.90
2018-06-30T07:05:32.264Z,71.90
2018-06-30T07:08:01.034Z,71.10
2018-06-30T07:10:29.562Z,68.50
2018-06-30T07:12:58.062Z,67.60
2018-06-30T07:15:26.588Z,67.80
2018-06-30T07:17:55.100Z,66.80
2018-06-30T07:20:23.652Z,66.60
2018-06-30T07:22:52.175Z,66.70
2018-06-30T07:25:20.702Z,66.30
2018-06-30T07:27:49.379Z,70.20
2018-06-30T07:32:46.063Z,65.60
2018-06-30T07:35:14.587Z,63.50
2018-06-30T07:37:43.167Z,65.10
2018-06-30T07:40:11.665Z,63.40
2018-06-30T07:42:40.160Z,63.80
2018-06-30T07:45:08.691Z,63.00
2018-06-30T07:47:37.220Z,63.00
2018-06-30T07:50:05.839Z,61.60
2018-06-30T07:52:34.327Z,62.30
2018-06-30T07:55:02.855Z,62.80
2018-06-30T07:57:31.364Z,62.90
2018-06-30T07:59:59.962Z,64.50
2018-06-30T08:02:28.415Z,60.40
2018-06-30T08:04:56.900Z,60.00
2018-06-30T08:07:25.465Z,59.80
2018-06-30T08:09:54.377Z,59.90
2018-06-30T08:12:22.895Z,62.20
2018-06-30T08:14:51.461Z,59.80
2018-06-30T08:17:19.950Z,59.50
2018-06-30T08:19:48.473Z,60.20
2018-06-30T08:22:17.065Z,60.70
2018-06-30T08:24:45.571Z,59.60
2018-06-30T08:32:10.490Z,60.80
2018-06-30T08:34:38.958Z,60.00
2018-06-30T08:37:07.475Z,58.80
2018-06-30T08:39:35.972Z,58.60
2018-06-30T08:42:04.533Z,58.90
2018-06-30T08:44:33.070Z,57.30
2018-06-30T08:47:01.552Z,55.60
2018-06-30T08:49:30.040Z,56.00
2018-06-30T08:51:58.540Z,56.10
2018-06-30T08:54:27.061Z,55.50
2018-06-30T08:56:55.567Z,56.40
2018-06-30T08:59:24.076Z,55.20
2018-06-30T09:01:52.586Z,56.00
2018-06-30T09:04:21.100Z,57.80
2018-06-30T09:06:49.593Z,56.00
2018-06-30T09:09:18.072Z,55.60
2018-06-30T09:11:46.599Z,54.80
2018-06-30T09:19:11.423Z,54.50
2018-06-30T09:21:46.575Z,55.80
2018-06-30T09:24:15.155Z,58.20
2018-06-30T09:26:43.617Z,54.20
2018-06-30T09:29:12.140Z,54.10
2018-06-30T09:34:09.136Z,53.70
2018-06-30T09:36:37.636Z,53.50
2018-06-30T09:39:08.563Z,53.00
2018-06-30T09:41:37.105Z,54.10
2018-06-30T09:44:05.930Z,54.40
2018-06-30T09:46:34.645Z,52.80
2018-06-30T09:49:03.177Z,51.60
2018-06-30T09:51:31.709Z,51.40
2018-06-30T09:54:00.271Z,52.20
2018-06-30T09:58:57.005Z,52.50
2018-06-30T10:01:25.515Z,52.90
2018-06-30T10:06:22.253Z,51.90
2018-06-30T10:08:50.753Z,51.90
2018-06-30T10:11:19.245Z,51.90
2018-06-30T10:18:44.119Z,50.40
2018-06-30T10:21:12.712Z,50.90
2018-06-30T10:23:41.215Z,52.20
2018-06-30T10:26:09.708Z,50.70
2018-06-30T10:28:38.183Z,51.10
2018-06-30T10:31:06.722Z,50.40
2018-06-30T10:33:35.251Z,49.40
2018-06-30T10:36:03.792Z,49.10
2018-06-30T10:41:00.485Z,50.30
2018-06-30T10:43:28.975Z,49.70
2018-06-30T10:45:57.526Z,50.00
2018-06-30T10:48:26.032Z,50.00
2018-06-30T10:50:54.550Z,51.30
2018-06-30T10:53:23.069Z,50.80
2018-06-30T10:55:51.589Z,51.00
2018-06-30T10:58:20.094Z,50.50
2018-06-30T11:00:48.635Z,49.70
2018-06-30T11:03:17.183Z,50.10
2018-06-30T11:05:45.747Z,50.00
2018-06-30T11:08:14.272Z,49.30
2018-06-30T11:10:42.759Z,49.20
2018-06-30T11:13:11.311Z,48.50
2018-06-30T11:15:39.808Z,48.00
2018-06-30T11:18:08.809Z,47.90
2018-06-30T11:20:37.389Z,48.50
2018-06-30T11:23:06.022Z,48.00
2018-06-30T11:25:34.558Z,47.50
2018-06-30T11:28:03.131Z,47.80
2018-06-30T11:30:31.673Z,46.90
2018-06-30T11:33:00.239Z,47.40
2018-06-30T11:35:28.714Z,46.80
2018-06-30T11:37:57.267Z,47.50
2018-06-30T11:40:25.885Z,48.80
2018-06-30T11:42:54.331Z,48.50
2018-06-30T11:45:22.934Z,48.70
2018-06-30T11:47:51.471Z,46.90
2018-06-30T11:50:20.048Z,47.90
2018-06-30T11:52:48.565Z,47.90
2018-06-30T11:55:17.069Z,46.60
2018-06-30T11:57:45.613Z,46.50
2018-06-30T12:00:20.647Z,45.90
2018-06-30T12:02:49.164Z,45.80
2018-06-30T12:05:17.677Z,45.00
2018-06-30T12:07:46.221Z,45.40
2018-06-30T12:10:14.744Z,44.20
2018-06-30T12:12:43.241Z,44.20
2018-06-30T12:15:11.799Z,44.40
2018-06-30T12:17:40.311Z,43.90
2018-06-30T12:22:37.036Z,45.50
2018-06-30T12:25:05.583Z,45.70
2018-06-30T12:27:34.127Z,46.00
2018-06-30T12:30:02.686Z,43.90
2018-06-30T12:32:31.268Z,44.10
2018-06-30T12:34:59.763Z,43.20
2018-06-30T12:37:28.352Z,43.70
2018-06-30T12:39:56.870Z,43.50
2018-06-30T12:44:53.553Z,43.70
2018-06-30T12:47:22.115Z,44.20
2018-06-30T12:49:50.639Z,43.00
2018-06-30T12:52:19.213Z,43.30
2018-06-30T12:54:47.882Z,41.80
2018-06-30T12:57:16.423Z,41.70
2018-06-30T12:59:44.924Z,42.70
2018-06-30T13:02:14.395Z,42.90
2018-06-30T13:04:42.911Z,42.20
2018-06-30T13:07:11.403Z,42.90
2018-06-30T13:09:39.969Z,42.60
2018-06-30T13:12:08.519Z,41.30
2018-06-30T13:17:05.526Z,41.20
2018-06-30T13:19:34.026Z,42.20
2018-06-30T13:22:02.617Z,41.50
2018-06-30T13:24:31.143Z,41.00
2018-06-30T13:26:59.653Z,41.40
2018-06-30T13:29:28.172Z,42.40
2018-06-30T13:31:56.683Z,41.90
2018-06-30T13:34:25.208Z,40.60
2018-06-30T13:36:53.724Z,41.80
2018-06-30T13:39:22.234Z,40.20
2018-06-30T13:41:50.820Z,41.20
2018-06-30T13:44:19.321Z,40.40
2018-06-30T13:46:47.914Z,43.10
2018-06-30T13:49:16.448Z,40.90
2018-06-30T13:51:44.991Z,40.50
2018-06-30T13:54:13.509Z,40.90
2018-06-30T13:56:42.028Z,40.20
2018-06-30T13:59:10.573Z,39.80
2018-06-30T14:04:07.242Z,40.50
2018-06-30T14:06:35.807Z,39.20
2018-06-30T14:09:07.920Z,40.50
2018-06-30T14:11:36.506Z,40.80
2018-06-30T14:14:05.448Z,40.50
2018-06-30T14:16:34.037Z,40.10
2018-06-30T14:19:02.623Z,39.30
2018-06-30T14:21:31.168Z,39.90
2018-06-30T14:23:59.685Z,40.20
2018-06-30T14:26:28.499Z,39.90
2018-06-30T14:28:57.423Z,39.50
2018-06-30T14:31:25.906Z,37.90
2018-06-30T14:33:54.704Z,38.10
2018-06-30T14:36:23.241Z,36.90
2018-06-30T14:38:51.735Z,37.90
2018-06-30T14:41:20.249Z,37.10
2018-06-30T14:43:48.810Z,35.70
2018-06-30T14:46:17.337Z,34.80
2018-06-30T14:48:45.857Z,34.60
2018-06-30T14:51:14.356Z,35.60
2018-06-30T14:53:42.849Z,34.90
2018-06-30T14:56:11.387Z,35.00
2018-06-30T14:58:39.930Z,34.30
2018-06-30T15:01:08.509Z,32.80
2018-06-30T15:03:37.147Z,34.30
2018-06-30T15:06:05.779Z,32.70
2018-06-30T15:08:34.307Z,31.50
2018-06-30T15:11:02.906Z,32.80
2018-06-30T15:13:31.407Z,31.60
2018-06-30T15:15:59.945Z,31.60
2018-06-30T15:18:28.505Z,30.40
2018-06-30T15:20:57.029Z,31.70
2018-06-30T15:23:25.631Z,30.00
2018-06-30T15:25:54.336Z,31.40
2018-06-30T15:28:22.894Z,32.50
2018-06-30T15:30:51.436Z,32.00
2018-06-30T15:33:19.972Z,31.60
2018-06-30T15:35:48.531Z,31.80
2018-06-30T15:38:17.048Z,30.90
2018-06-30T15:40:45.632Z,31.10
2018-06-30T15:43:14.172Z,32.50
2018-06-30T15:45:42.706Z,31.60
2018-06-30T15:48:11.368Z,32.70
2018-06-30T15:50:39.878Z,32.10
2018-06-30T15:53:08.406Z,32.30
2018-06-30T15:55:36.902Z,32.10
2018-06-30T15:58:05.764Z,30.60
2018-06-30T16:00:34.322Z,30.80
2018-06-30T16:03:02.817Z,31.40
2018-06-30T16:05:31.378Z,31.60
2018-06-30T16:07:59.937Z,31.20
2018-06-30T16:10:28.492Z,31.90
2018-06-30T16:12:57.067Z,32.80
2018-06-30T16:17:53.804Z,33.90
2018-06-30T16:20:22.363Z,34.60
2018-06-30T16:22:50.895Z,35.00
2018-06-30T16:25:19.397Z,37.00
2018-06-30T16:30:16.052Z,39.10
2018-06-30T16:32:44.651Z,39.10
2018-06-30T16:35:13.212Z,40.30
2018-06-30T16:37:41.767Z,40.40
2018-06-30T16:40:10.291Z,40.50
2018-06-30T16:42:38.805Z,41.20
2018-06-30T16:45:07.337Z,41.20
2018-06-30T16:47:35.887Z,41.40
2018-06-30T16:50:04.811Z,41.60
2018-06-30T16:52:33.373Z,42.30
2018-06-30T16:55:01.912Z,42.90
2018-06-30T16:57:30.429Z,42.60
2018-06-30T17:02:27.139Z,43.60
2018-06-30T17:04:55.647Z,44.30
2018-06-30T17:07:24.144Z,43.80
2018-06-30T17:09:52.687Z,43.80
2018-06-30T17:12:21.187Z,43.10
2018-06-30T17:14:49.699Z,44.20
2018-06-30T17:17:18.227Z,44.40
2018-06-30T17:19:46.739Z,43.70
2018-06-30T17:22:15.344Z,43.80
2018-06-30T17:24:43.885Z,43.50
2018-06-30T17:27:12.367Z,43.40
2018-06-30T17:29:40.926Z,44.40
2018-06-30T17:32:09.448Z,43.60
2018-06-30T17:34:37.980Z,43.90
2018-06-30T17:37:06.540Z,43.80
2018-06-30T17:39:35.021Z,43.70
2018-06-30T17:42:03.582Z,44.00
2018-06-30T17:47:00.250Z,44.90
2018-06-30T17:54:25.087Z,46.20
2018-06-30T17:56:53.619Z,46.40
2018-06-30T17:59:22.153Z,46.50
2018-06-30T18:01:50.693Z,46.40
2018-06-30T18:04:19.222Z,46.70
2018-06-30T18:06:47.729Z,48.00
2018-06-30T18:09:16.252Z,49.00
2018-06-30T18:11:44.853Z,48.50
2018-06-30T18:14:13.405Z,49.20
2018-06-30T18:16:41.845Z,48.50
2018-06-30T18:19:10.376Z,48.20
2018-06-30T18:21:38.888Z,48.00
2018-06-30T18:24:07.431Z,48.30
2018-06-30T18:29:04.426Z,48.00
2018-06-30T18:31:32.931Z,49.90
2018-06-30T18:34:01.425Z,50.00
2018-06-30T18:36:29.969Z,50.60
2018-06-30T18:38:58.462Z,51.40
2018-06-30T18:41:26.963Z,51.40
2018-06-30T18:43:55.527Z,51.30
2018-06-30T18:46:24.017Z,51.20
2018-06-30T18:48:52.529Z,51.80
2018-06-30T18:51:21.137Z,52.10
2018-06-30T18:53:49.703Z,52.60
2018-06-30T18:56:18.236Z,52.90
2018-06-30T19:01:14.974Z,52.90
2018-06-30T19:03:43.484Z,52.90
2018-06-30T19:06:12.076Z,53.10
2018-06-30T19:08:40.572Z,53.80
2018-06-30T19:13:37.256Z,54.30
2018-06-30T19:16:05.797Z,54.50
2018-06-30T19:18:34.278Z,55.40
2018-06-30T19:21:02.797Z,55.40
2018-06-30T19:23:31.340Z,55.10
2018-06-30T19:25:59.871Z,56.10
2018-06-30T19:30:56.541Z,55.40
2018-06-30T19:35:53.182Z,55.50
2018-06-30T19:38:21.686Z,55.60
2018-06-30T19:40:50.202Z,55.30
2018-06-30T19:43:18.742Z,55.70
2018-06-30T19:45:47.279Z,55.80
2018-06-30T19:48:15.780Z,55.80
2018-06-30T19:50:44.361Z,55.60
2018-06-30T19:53:12.956Z,56.50
2018-06-30T19:55:41.486Z,57.50
2018-06-30T19:58:09.997Z,57.40
2018-06-30T20:00:38.549Z,57.50
2018-06-30T20:03:07.072Z,58.40
2018-06-30T20:05:35.631Z,58.30
2018-06-30T20:08:04.158Z,58.40
2018-06-30T20:10:32.681Z,57.60
2018-06-30T20:13:01.260Z,57.90
2018-06-30T20:15:29.789Z,57.80
2018-06-30T20:20:26.501Z,57.20
2018-06-30T20:22:55.004Z,57.40
2018-06-30T20:25:23.542Z,57.20
2018-06-30T20:27:52.150Z,57.50
2018-06-30T20:30:20.717Z,58.10
2018-06-30T20:32:49.249Z,58.30
2018-06-30T20:35:17.788Z,59.00
2018-06-30T20:47:39.012Z,61.10
2018-06-30T20:50:07.605Z,60.90
2018-06-30T20:52:36.122Z,61.50
2018-06-30T20:55:04.716Z,61.60
2018-06-30T20:57:33.292Z,62.60
2018-06-30T21:00:01.850Z,61.10
2018-06-30T21:02:30.382Z,61.30
2018-06-30T21:04:58.902Z,62.00
2018-06-30T21:07:27.460Z,61.20
2018-06-30T21:09:55.998Z,62.80
2018-06-30T21:12:24.512Z,62.90
2018-06-30T21:14:53.049Z,63.00
2018-06-30T21:17:21.618Z,62.20
2018-06-30T21:22:18.355Z,61.40
2018-06-30T21:24:46.859Z,60.60
2018-06-30T21:27:15.381Z,60.30
2018-06-30T21:29:43.908Z,60.20
2018-06-30T21:32:12.431Z,60.00
2018-06-30T21:37:09.121Z,59.60
2018-06-30T21:39:37.623Z,59.60
2018-06-30T21:42:06.155Z,59.40
2018-06-30T21:44:34.691Z,59.50
2018-06-30T21:47:03.232Z,59.60
2018-06-30T21:49:31.776Z,59.50
2018-06-30T21:52:00.312Z,61.10
2018-06-30T21:56:57.063Z,61.60
2018-06-30T21:59:25.563Z,62.30
2018-06-30T22:01:57.024Z,61.60
2018-06-30T22:04:25.629Z,62.00
2018-06-30T22:06:54.186Z,62.00
2018-06-30T22:09:22.700Z,61.10
2018-06-30T22:11:51.375Z,61.40
2018-06-30T22:16:48.045Z,60.90
2018-06-30T22:21:45.028Z,60.00
2018-06-30T22:24:13.612Z,60.00
2018-06-30T22:26:42.133Z,60.30
2018-06-30T22:29:10.669Z,59.70
2018-06-30T22:34:07.440Z,59.70
2018-06-30T22:39:06.074Z,61.60
2018-06-30T22:41:34.596Z,60.60
2018-06-30T22:44:03.224Z,60.70
2018-06-30T22:48:59.908Z,62.10
2018-06-30T22:51:28.430Z,62.70
2018-06-30T22:53:56.946Z,62.20
2018-06-30T22:56:25.485Z,62.40
2018-06-30T22:58:54.112Z,62.90
2018-06-30T23:01:22.637Z,63.80
2018-06-30T23:06:19.379Z,63.90
2018-06-30T23:08:54.425Z,62.90
2018-06-30T23:11:24.136Z,62.40
2018-06-30T23:16:20.960Z,63.20
2018-06-30T23:18:49.484Z,64.50
2018-06-30T23:21:17.981Z,64.90
2018-06-30T23:26:14.649Z,65.70
2018-06-30T23:28:43.156Z,65.20
2018-06-30T23:31:11.667Z,65.50
2018-06-30T23:33:40.207Z,65.50
2018-06-30T23:38:36.919Z,65.80
2018-06-30T23:41:05.431Z,64.80
2018-06-30T23:43:33.921Z,64.20
2018-06-30T23:46:02.434Z,64.00
2018-06-30T23:48:30.927Z,63.90
2018-06-30T23:50:59.435Z,63.40
2018-06-30T23:53:27.971Z,62.80
2018-06-30T23:55:56.456Z,61.80
2018-06-30T23:58:24.939Z,62.50
